Terminal Aerodrome Forecast
Issued by NWS Binghamton, NY

Home | Current Version | Previous Version | Text Only | Print | Product List | Glossary On
Versions: 1 2 3 4 5 6 7 8 9 10 11 12 13 14 15 16 17 18 19
000
FTUS41 KBGM 281700
TAFSYR
TAF
KSYR 281737Z 2818/2918 27012G20KT P6SM -SHSN SCT015 BKN035
      TEMPO 2818/2822 2SM -SHSN OVC015
     FM282200 27010KT P6SM -SHSN SCT025 BKN040
     FM290400 22004KT P6SM BKN040
     FM291400 15007KT P6SM SCT040 OVC070=

USA.gov is the U.S. government's official web portal to all federal, state and local government web resources and services.